createdAt,value
2023-02-12T00:01:10.124Z,0.65
2023-02-12T00:03:38.434Z,0.74
2023-02-12T00:06:07.194Z,0.85
2023-02-12T00:08:36.561Z,0.97
2023-02-12T00:11:09.575Z,0.96
2023-02-12T00:13:38.304Z,0.90
2023-02-12T00:16:08.372Z,0.92
2023-02-12T00:18:37.042Z,0.98
2023-02-12T00:21:06.073Z,0.96
2023-02-12T00:23:34.015Z,0.88
2023-02-12T00:26:06.823Z,0.86
2023-02-12T00:28:34.945Z,0.81
2023-02-12T00:31:07.005Z,0.72
2023-02-12T00:33:35.319Z,0.68
2023-02-12T00:36:05.294Z,0.61
2023-02-12T00:38:33.351Z,0.54
2023-02-12T00:41:01.220Z,0.54
2023-02-12T00:43:30.483Z,0.54
2023-02-12T00:45:58.711Z,0.52
2023-02-12T00:48:26.857Z,0.57
2023-02-12T00:50:54.680Z,0.49
2023-02-12T00:53:22.561Z,0.52
2023-02-12T00:55:50.482Z,0.57
2023-02-12T00:58:19.084Z,0.49
2023-02-12T01:00:48.496Z,0.47
2023-02-12T01:03:17.083Z,0.46
2023-02-12T01:05:45.340Z,0.43
2023-02-12T01:08:13.777Z,0.37
2023-02-12T01:10:42.007Z,0.38
2023-02-12T01:13:12.653Z,0.39
2023-02-12T01:15:40.769Z,0.40
2023-02-12T01:18:10.256Z,0.45
2023-02-12T01:20:38.348Z,0.46
2023-02-12T01:23:08.523Z,0.48
2023-02-12T01:25:36.504Z,0.53
2023-02-12T01:28:04.559Z,0.50
2023-02-12T01:30:32.466Z,0.39
2023-02-12T01:33:00.663Z,0.25
2023-02-12T01:35:29.986Z,0.28
2023-02-12T01:37:59.104Z,0.20
2023-02-12T01:40:27.040Z,0.11
2023-02-12T01:42:54.870Z,0.16
2023-02-12T01:45:56.353Z,0.14
2023-02-12T01:48:28.437Z,0.11
2023-02-12T01:50:58.935Z,0.08
2023-02-12T01:53:31.123Z,0.04
2023-02-12T01:56:02.050Z,0.03
2023-02-12T01:58:36.076Z,-0.01
2023-02-12T02:01:05.886Z,-0.09
2023-02-12T02:03:35.285Z,-0.05
2023-02-12T02:06:09.885Z,-0.15
2023-02-12T02:08:39.224Z,-0.15
2023-02-12T02:11:27.082Z,-0.34
2023-02-12T02:14:13.036Z,-0.22
2023-02-12T02:16:47.120Z,-0.25
2023-02-12T02:19:31.529Z,-0.23
2023-02-12T02:22:24.028Z,-0.33
2023-02-12T02:25:26.143Z,-0.38
2023-02-12T02:28:09.327Z,-0.41
2023-02-12T02:30:46.194Z,-0.39
2023-02-12T02:33:23.442Z,-0.39
2023-02-12T02:35:56.941Z,-0.37
2023-02-12T02:38:31.779Z,-0.42
2023-02-12T02:41:05.942Z,-0.99
2023-02-12T02:43:39.628Z,-0.61
2023-02-12T02:46:14.900Z,-0.60
2023-02-12T02:48:47.728Z,-0.50
2023-02-12T02:51:20.280Z,-0.47
2023-02-12T02:53:52.718Z,-0.42
2023-02-12T02:56:23.544Z,-0.37
2023-02-12T02:58:57.145Z,-0.16
2023-02-12T03:01:31.266Z,-0.23
2023-02-12T03:04:04.594Z,-0.31
2023-02-12T03:06:40.260Z,-0.35
2023-02-12T03:09:17.723Z,-0.30
2023-02-12T03:11:46.192Z,-0.30
2023-02-12T03:14:19.101Z,-0.40
2023-02-12T03:16:57.002Z,-0.28
2023-02-12T03:19:28.280Z,-0.26
2023-02-12T03:22:01.320Z,-0.21
2023-02-12T03:24:36.209Z,-0.17
2023-02-12T03:27:08.530Z,-0.07
2023-02-12T03:29:36.649Z,0.01
2023-02-12T03:32:23.651Z,0.06
2023-02-12T03:34:55.108Z,0.09
2023-02-12T03:37:30.358Z,0.06
2023-02-12T03:40:06.987Z,0.14
2023-02-12T03:42:39.920Z,-0.02
2023-02-12T03:45:15.527Z,0.15
2023-02-12T03:47:49.682Z,0.06
2023-02-12T03:50:20.538Z,0.17
2023-02-12T03:52:50.877Z,0.06
2023-02-12T03:55:18.842Z,0.31
2023-02-12T03:57:51.520Z,0.31
2023-02-12T04:00:23.214Z,0.31
2023-02-12T04:02:53.160Z,0.21
2023-02-12T04:05:22.997Z,0.31
2023-02-12T04:07:52.470Z,0.36
2023-02-12T04:10:28.610Z,0.48
2023-02-12T04:13:08.268Z,0.49
2023-02-12T04:15:52.317Z,0.52
2023-02-12T04:18:28.559Z,0.49
2023-02-12T04:21:06.302Z,0.48
2023-02-12T04:23:46.382Z,0.49
2023-02-12T04:26:24.221Z,0.45
2023-02-12T04:29:06.230Z,0.44
2023-02-12T04:31:40.737Z,0.35
2023-02-12T04:34:14.095Z,0.16
2023-02-12T04:36:50.359Z,0.41
2023-02-12T04:39:24.672Z,0.40
2023-02-12T04:41:53.299Z,0.41
2023-02-12T04:44:26.276Z,0.39
2023-02-12T04:46:54.553Z,0.36
2023-02-12T04:49:24.049Z,0.20
2023-02-12T04:51:52.669Z,0.44
2023-02-12T04:54:22.958Z,0.40
2023-02-12T04:56:51.490Z,0.38
2023-02-12T04:59:19.491Z,0.41
2023-02-12T05:01:47.599Z,0.41
2023-02-12T05:04:17.181Z,0.39
2023-02-12T05:06:47.128Z,0.37
2023-02-12T05:09:17.146Z,0.33
2023-02-12T05:11:45.551Z,0.34
2023-02-12T05:14:13.673Z,0.48
2023-02-12T05:16:41.551Z,0.55
2023-02-12T05:19:09.869Z,0.64
2023-02-12T05:21:38.194Z,0.76
2023-02-12T05:24:07.865Z,0.81
2023-02-12T05:26:36.154Z,0.87
2023-02-12T05:29:04.589Z,0.89
2023-02-12T05:31:32.639Z,0.96
2023-02-12T05:34:00.554Z,1.05
2023-02-12T05:36:29.327Z,1.09
2023-02-12T05:38:59.930Z,1.09
2023-02-12T05:41:29.540Z,1.09
2023-02-12T05:43:57.650Z,1.10
2023-02-12T05:46:25.534Z,1.03
2023-02-12T05:48:53.693Z,0.99
2023-02-12T05:51:23.856Z,0.63
2023-02-12T05:53:53.408Z,0.80
2023-02-12T05:56:23.414Z,0.95
2023-02-12T05:58:55.808Z,0.94
2023-02-12T06:01:25.863Z,0.94
2023-02-12T06:03:53.777Z,0.99
2023-02-12T06:06:21.765Z,0.79
2023-02-12T06:08:50.234Z,0.86
2023-02-12T06:11:19.472Z,0.71
2023-02-12T06:13:47.688Z,0.71
2023-02-12T06:16:22.636Z,0.58
2023-02-12T06:18:50.981Z,0.18
2023-02-12T06:21:20.573Z,0.57
2023-02-12T06:23:48.969Z,0.49
2023-02-12T06:26:17.128Z,0.60
2023-02-12T06:28:45.576Z,0.67
2023-02-12T06:31:22.764Z,0.62
2023-02-12T06:33:51.886Z,0.54
2023-02-12T06:36:20.114Z,0.67
2023-02-12T06:38:48.682Z,0.62
2023-02-12T06:41:17.055Z,0.61
2023-02-12T06:43:45.566Z,0.62
2023-02-12T06:46:14.719Z,0.55
2023-02-12T06:48:44.364Z,0.54
2023-02-12T06:51:15.073Z,0.56
2023-02-12T06:53:43.757Z,0.58
2023-02-12T06:56:15.031Z,0.51
2023-02-12T06:58:44.749Z,0.63
2023-02-12T07:01:15.171Z,0.45
2023-02-12T07:03:46.010Z,0.75
2023-02-12T07:06:13.901Z,0.73
2023-02-12T07:08:41.975Z,0.72
2023-02-12T07:11:10.734Z,0.68
2023-02-12T07:13:38.738Z,0.77
2023-02-12T07:16:08.068Z,0.69
2023-02-12T07:18:36.991Z,0.74
2023-02-12T07:21:08.027Z,0.75
2023-02-12T07:23:37.053Z,0.67
2023-02-12T07:26:07.121Z,0.74
2023-02-12T07:28:35.935Z,0.40
2023-02-12T07:31:08.801Z,0.74
2023-02-12T07:33:37.319Z,0.65
2023-02-12T07:36:10.633Z,0.68
2023-02-12T07:38:40.011Z,0.79
2023-02-12T07:41:10.852Z,0.75
2023-02-12T07:43:39.203Z,0.68
2023-02-12T07:46:09.212Z,0.71
2023-02-12T07:48:37.230Z,0.77
2023-02-12T07:51:08.856Z,0.73
2023-02-12T07:53:37.069Z,0.68
2023-02-12T07:56:10.232Z,-0.33
2023-02-12T07:58:38.652Z,0.78
2023-02-12T08:01:21.698Z,0.75
2023-02-12T08:03:51.379Z,0.78
2023-02-12T08:06:23.109Z,0.77
2023-02-12T08:08:52.610Z,0.77
2023-02-12T08:11:20.576Z,0.48
2023-02-12T08:13:48.982Z,0.73
2023-02-12T08:16:19.009Z,0.69
2023-02-12T08:18:47.221Z,0.75
2023-02-12T08:21:16.468Z,0.72
2023-02-12T08:23:46.360Z,0.74
2023-02-12T08:26:15.626Z,0.84
2023-02-12T08:28:46.072Z,0.89
2023-02-12T08:31:17.293Z,0.88
2023-02-12T08:33:46.727Z,0.90
2023-02-12T08:36:16.684Z,0.82
2023-02-12T08:38:47.156Z,0.92
2023-02-12T08:41:19.235Z,0.88
2023-02-12T08:43:49.339Z,0.86
2023-02-12T08:46:19.170Z,0.96
2023-02-12T08:48:47.339Z,0.98
2023-02-12T08:51:17.491Z,1.05
2023-02-12T08:53:48.363Z,1.05
2023-02-12T08:56:19.268Z,-0.04
2023-02-12T08:58:48.030Z,1.11
2023-02-12T09:01:18.627Z,1.10
2023-02-12T09:03:47.416Z,1.20
2023-02-12T09:06:16.950Z,1.14
2023-02-12T09:08:49.584Z,0.54
2023-02-12T09:11:20.037Z,0.77
2023-02-12T09:13:48.797Z,1.18
2023-02-12T09:16:19.089Z,1.24
2023-02-12T09:18:46.960Z,1.25
2023-02-12T09:21:17.417Z,1.21
2023-02-12T09:23:47.039Z,1.25
2023-02-12T09:26:17.498Z,1.36
2023-02-12T09:28:45.670Z,1.54
2023-02-12T09:31:15.742Z,1.35
2023-02-12T09:33:44.318Z,1.60
2023-02-12T09:36:15.640Z,1.71
2023-02-12T09:38:44.611Z,1.72
2023-02-12T09:41:52.976Z,1.56
2023-02-12T09:44:27.242Z,1.68
2023-02-12T09:47:00.933Z,1.68
2023-02-12T09:49:50.819Z,1.67
2023-02-12T09:52:22.455Z,1.70
2023-02-12T09:54:51.410Z,1.81
2023-02-12T09:57:26.354Z,2.14
2023-02-12T09:59:58.245Z,2.40
2023-02-12T10:02:27.371Z,2.44
2023-02-12T10:05:01.739Z,2.51
2023-02-12T10:07:49.322Z,2.49
2023-02-12T10:10:26.985Z,2.61
2023-02-12T10:13:05.299Z,2.65
2023-02-12T10:15:41.180Z,2.81
2023-02-12T10:18:25.506Z,2.88
2023-02-12T10:21:05.148Z,2.97
2023-02-12T10:23:50.171Z,2.97
2023-02-12T10:26:27.007Z,2.90
2023-02-12T10:29:01.669Z,2.87
2023-02-12T10:31:36.044Z,2.49
2023-02-12T10:34:16.815Z,2.71
2023-02-12T10:36:47.089Z,2.97
2023-02-12T10:39:23.398Z,3.15
2023-02-12T10:41:58.320Z,3.12
2023-02-12T10:44:28.389Z,2.99
2023-02-12T10:46:56.624Z,3.27
2023-02-12T10:49:25.069Z,3.25
2023-02-12T10:52:06.415Z,3.24
2023-02-12T10:54:40.331Z,3.34
2023-02-12T10:57:17.048Z,3.29
2023-02-12T10:59:48.331Z,3.17
2023-02-12T11:02:23.234Z,3.09
2023-02-12T11:04:51.897Z,3.12
2023-02-12T11:07:20.932Z,3.17
2023-02-12T11:09:52.581Z,3.33
2023-02-12T11:12:27.202Z,3.43
2023-02-12T11:15:01.637Z,3.72
2023-02-12T11:17:35.079Z,3.96
2023-02-12T11:20:20.217Z,4.14
2023-02-12T11:22:53.916Z,2.78
2023-02-12T11:25:23.196Z,4.07
2023-02-12T11:28:03.501Z,4.11
2023-02-12T11:30:33.881Z,4.05
2023-02-12T11:33:19.006Z,4.01
2023-02-12T11:35:55.227Z,3.95
2023-02-12T11:38:29.013Z,3.99
2023-02-12T11:41:00.988Z,3.99
2023-02-12T11:43:32.070Z,4.05
2023-02-12T11:46:02.202Z,4.00
2023-02-12T11:48:34.767Z,3.94
2023-02-12T11:51:05.868Z,3.96
2023-02-12T11:53:36.022Z,4.05
2023-02-12T11:56:06.216Z,4.08
2023-02-12T11:58:34.455Z,4.03
2023-02-12T12:01:09.691Z,4.16
2023-02-12T12:03:44.411Z,4.15
2023-02-12T12:06:22.968Z,4.07
2023-02-12T12:08:58.599Z,4.15
2023-02-12T12:11:30.786Z,4.05
2023-02-12T12:14:03.864Z,4.09
2023-02-12T12:16:56.095Z,4.29
2023-02-12T12:19:51.553Z,4.32
2023-02-12T12:22:29.247Z,4.21
2023-02-12T12:25:06.467Z,4.44
2023-02-12T12:27:59.584Z,4.36
2023-02-12T12:30:39.917Z,3.97
2023-02-12T12:33:17.476Z,4.31
2023-02-12T12:35:55.893Z,4.04
2023-02-12T12:38:37.376Z,4.03
2023-02-12T12:41:17.161Z,4.07
2023-02-12T12:43:57.157Z,4.20
2023-02-12T12:46:36.089Z,4.40
2023-02-12T12:49:23.037Z,4.45
2023-02-12T12:52:26.647Z,4.45
2023-02-12T12:55:18.781Z,4.33
2023-02-12T12:58:01.125Z,4.52
2023-02-12T13:00:42.041Z,4.46
2023-02-12T13:03:42.695Z,4.44
2023-02-12T13:06:35.596Z,4.35
2023-02-12T13:09:25.902Z,4.37
2023-02-12T13:12:05.819Z,3.94
2023-02-12T13:14:45.452Z,4.30
2023-02-12T13:17:27.018Z,4.37
2023-02-12T13:20:06.807Z,4.40
2023-02-12T13:22:42.478Z,4.33
2023-02-12T13:25:23.355Z,4.25
2023-02-12T13:27:52.907Z,4.19
2023-02-12T13:30:24.690Z,4.28
2023-02-12T13:33:10.840Z,4.30
2023-02-12T13:35:44.768Z,4.25
2023-02-12T13:38:20.211Z,4.04
2023-02-12T13:40:49.832Z,4.14
2023-02-12T13:43:34.375Z,4.09
2023-02-12T13:46:10.063Z,4.00
2023-02-12T13:48:51.456Z,3.99
2023-02-12T13:51:27.258Z,4.03
2023-02-12T13:54:14.825Z,4.08
2023-02-12T13:56:45.260Z,4.20
2023-02-12T13:59:40.866Z,4.21
2023-02-12T14:02:28.677Z,4.15
2023-02-12T14:04:59.963Z,4.22
2023-02-12T14:07:43.721Z,3.30
2023-02-12T14:10:23.692Z,4.16
2023-02-12T14:12:52.518Z,4.12
2023-02-12T14:15:32.376Z,4.10
2023-02-12T14:18:28.871Z,4.13
2023-02-12T14:21:35.451Z,4.12
2023-02-12T14:24:36.898Z,4.11
2023-02-12T14:27:08.039Z,3.95
2023-02-12T14:29:37.143Z,3.94
2023-02-12T14:32:45.705Z,3.67
2023-02-12T14:35:33.069Z,3.99
2023-02-12T14:38:01.895Z,3.95
2023-02-12T14:40:47.978Z,3.97
2023-02-12T14:43:30.875Z,3.92
2023-02-12T14:46:00.697Z,3.83
2023-02-12T14:48:48.829Z,3.75
2023-02-12T14:51:22.720Z,3.85
2023-02-12T14:53:54.704Z,3.80
2023-02-12T14:56:23.666Z,3.80
2023-02-12T14:58:57.027Z,3.36
2023-02-12T15:01:31.946Z,3.61
2023-02-12T15:04:03.972Z,3.55
2023-02-12T15:06:40.746Z,3.56
2023-02-12T15:09:12.960Z,3.55
2023-02-12T15:11:46.355Z,3.41
2023-02-12T15:14:20.150Z,3.46
2023-02-12T15:16:59.869Z,3.45
2023-02-12T15:19:40.702Z,3.43
2023-02-12T15:22:41.585Z,3.38
2023-02-12T15:25:16.703Z,3.37
2023-02-12T15:27:45.680Z,3.34
2023-02-12T15:30:25.925Z,3.36
2023-02-12T15:32:56.723Z,3.43
2023-02-12T15:35:28.537Z,3.42
2023-02-12T15:38:00.166Z,3.44
2023-02-12T15:40:28.447Z,3.38
2023-02-12T15:42:58.892Z,3.45
2023-02-12T15:45:29.709Z,3.48
2023-02-12T15:48:19.039Z,3.39
2023-02-12T15:50:51.027Z,3.33
2023-02-12T15:53:19.502Z,3.26
2023-02-12T15:55:49.618Z,3.12
2023-02-12T15:58:24.382Z,3.10
2023-02-12T16:00:55.039Z,2.96
2023-02-12T16:03:25.388Z,2.72
2023-02-12T16:05:56.814Z,3.03
2023-02-12T16:08:26.235Z,3.09
2023-02-12T16:10:56.909Z,3.11
2023-02-12T16:13:31.362Z,3.04
2023-02-12T16:16:15.617Z,3.00
2023-02-12T16:18:44.843Z,2.80
2023-02-12T16:21:16.098Z,2.92
2023-02-12T16:23:44.508Z,2.83
2023-02-12T16:26:19.523Z,2.79
2023-02-12T16:28:49.405Z,2.78
2023-02-12T16:31:19.211Z,2.61
2023-02-12T16:33:49.702Z,2.81
2023-02-12T16:36:31.046Z,2.81
2023-02-12T16:39:01.507Z,2.86
2023-02-12T16:41:31.814Z,2.87
2023-02-12T16:44:29.402Z,2.88
2023-02-12T16:47:01.572Z,2.89
2023-02-12T16:49:29.487Z,2.84
2023-02-12T16:52:32.426Z,2.74
2023-02-12T16:55:00.399Z,2.71
2023-02-12T16:57:28.342Z,2.80
2023-02-12T16:59:56.427Z,2.81
2023-02-12T17:02:25.856Z,2.81
2023-02-12T17:04:56.502Z,2.80
2023-02-12T17:07:29.126Z,2.74
2023-02-12T17:09:57.069Z,2.62
2023-02-12T17:12:25.471Z,2.72
2023-02-12T17:14:54.843Z,2.77
2023-02-12T17:17:23.066Z,2.77
2023-02-12T17:19:53.308Z,2.70
2023-02-12T17:22:24.378Z,2.67
2023-02-12T17:24:53.489Z,2.67
2023-02-12T17:27:21.999Z,2.68
2023-02-12T17:29:52.973Z,2.69
2023-02-12T17:32:20.930Z,2.66
2023-02-12T17:34:49.444Z,2.69
2023-02-12T17:37:19.103Z,2.51
2023-02-12T17:39:47.258Z,2.61
2023-02-12T17:42:15.290Z,2.85
2023-02-12T17:44:43.219Z,2.84
2023-02-12T17:47:11.289Z,2.88
2023-02-12T17:49:40.390Z,2.86
2023-02-12T17:52:08.209Z,2.82
2023-02-12T17:54:38.071Z,2.42
2023-02-12T17:57:06.013Z,2.76
2023-02-12T17:59:34.154Z,2.39
2023-02-12T18:02:02.759Z,2.71
2023-02-12T18:04:34.131Z,1.73
2023-02-12T18:07:05.053Z,2.73
2023-02-12T18:09:34.545Z,2.87
2023-02-12T18:12:04.184Z,2.49
2023-02-12T18:14:33.644Z,2.69
2023-02-12T18:17:01.729Z,2.79
2023-02-12T18:19:30.590Z,2.67
2023-02-12T18:21:58.645Z,2.74
2023-02-12T18:24:27.870Z,2.68
2023-02-12T18:26:57.454Z,2.61
2023-02-12T18:29:27.077Z,2.70
2023-02-12T18:31:55.820Z,2.60
2023-02-12T18:34:24.166Z,2.70
2023-02-12T18:36:52.472Z,2.65
2023-02-12T18:39:20.610Z,2.48
2023-02-12T18:41:48.828Z,2.68
2023-02-12T18:44:17.144Z,2.40
2023-02-12T18:46:50.137Z,2.84
2023-02-12T18:49:18.039Z,2.66
2023-02-12T18:51:46.012Z,2.81
2023-02-12T18:54:14.859Z,2.86
2023-02-12T18:56:46.728Z,2.39
2023-02-12T18:59:16.679Z,2.73
2023-02-12T19:01:46.446Z,2.68
2023-02-12T19:04:17.191Z,2.64
2023-02-12T19:06:47.462Z,2.64
2023-02-12T19:09:17.289Z,2.64
2023-02-12T19:11:46.748Z,2.32
2023-02-12T19:14:17.163Z,2.39
2023-02-12T19:16:45.721Z,2.34
2023-02-12T19:19:16.971Z,2.45
2023-02-12T19:21:44.943Z,1.24
2023-02-12T19:24:14.614Z,2.29
2023-02-12T19:26:44.547Z,2.37
2023-02-12T19:29:13.149Z,2.25
2023-02-12T19:31:45.513Z,2.27
2023-02-12T19:34:18.113Z,2.04
2023-02-12T19:36:46.854Z,2.31
2023-02-12T19:39:22.233Z,2.28
2023-02-12T19:41:50.857Z,2.15
2023-02-12T19:44:20.379Z,2.10
2023-02-12T19:46:50.877Z,2.08
2023-02-12T19:49:24.250Z,1.98
2023-02-12T19:51:53.475Z,1.97
2023-02-12T19:54:24.835Z,1.98
2023-02-12T19:56:55.406Z,1.51
2023-02-12T19:59:25.275Z,1.67
2023-02-12T20:01:53.940Z,1.75
2023-02-12T20:04:25.476Z,1.71
2023-02-12T20:06:53.885Z,1.81
2023-02-12T20:09:23.239Z,1.81
2023-02-12T20:11:51.821Z,1.70
2023-02-12T20:14:23.025Z,1.77
2023-02-12T20:16:52.137Z,1.68
2023-02-12T20:19:22.330Z,1.72
2023-02-12T20:21:55.325Z,1.67
2023-02-12T20:24:24.421Z,1.64
2023-02-12T20:26:52.649Z,1.59
2023-02-12T20:29:21.011Z,1.53
2023-02-12T20:31:49.361Z,1.61
2023-02-12T20:34:19.639Z,1.52
2023-02-12T20:36:48.391Z,1.42
2023-02-12T20:39:20.845Z,1.55
2023-02-12T20:41:49.489Z,1.58
2023-02-12T20:44:21.774Z,1.53
2023-02-12T20:46:55.634Z,1.60
2023-02-12T20:49:25.251Z,1.50
2023-02-12T20:51:53.330Z,1.41
2023-02-12T20:54:23.982Z,1.41
2023-02-12T20:56:52.050Z,1.40
2023-02-12T20:59:20.454Z,1.40
2023-02-12T21:01:49.224Z,1.43
2023-02-12T21:04:18.939Z,1.13
2023-02-12T21:06:48.353Z,0.98
2023-02-12T21:09:16.918Z,1.32
2023-02-12T21:11:46.428Z,1.17
2023-02-12T21:14:24.146Z,1.09
2023-02-12T21:16:53.794Z,0.88
2023-02-12T21:19:21.993Z,0.86
2023-02-12T21:21:49.955Z,0.42
2023-02-12T21:24:20.450Z,0.16
2023-02-12T21:26:50.433Z,1.10
2023-02-12T21:29:19.304Z,1.13
2023-02-12T21:31:48.819Z,1.07
2023-02-12T21:34:18.772Z,0.77
2023-02-12T21:36:48.006Z,0.89
2023-02-12T21:39:24.316Z,1.02
2023-02-12T21:41:55.385Z,1.05
2023-02-12T21:44:25.244Z,1.01
2023-02-12T21:46:53.371Z,0.89
2023-02-12T21:49:26.574Z,0.82
2023-02-12T21:51:56.817Z,0.69
2023-02-12T21:54:25.592Z,0.61
2023-02-12T21:56:54.968Z,0.63
2023-02-12T21:59:24.773Z,0.09
2023-02-12T22:01:55.474Z,0.54
2023-02-12T22:04:23.502Z,0.23
2023-02-12T22:06:52.785Z,0.38
2023-02-12T22:09:22.733Z,0.36
2023-02-12T22:11:52.326Z,0.28
2023-02-12T22:14:22.859Z,0.18
2023-02-12T22:16:51.521Z,0.13
2023-02-12T22:19:19.462Z,0.19
2023-02-12T22:21:47.386Z,0.09
2023-02-12T22:24:17.169Z,0.05
2023-02-12T22:26:45.874Z,-0.05
2023-02-12T22:29:15.435Z,-0.30
2023-02-12T22:31:46.515Z,0.03
2023-02-12T22:34:16.741Z,-0.50
2023-02-12T22:36:45.853Z,-0.02
2023-02-12T22:39:14.376Z,-0.07
2023-02-12T22:41:43.134Z,-0.01
2023-02-12T22:44:12.574Z,-0.40
2023-02-12T22:46:41.029Z,-0.27
2023-02-12T22:49:10.384Z,0.05
2023-02-12T22:51:39.638Z,0.03
2023-02-12T22:54:08.679Z,-0.08
2023-02-12T22:56:36.525Z,-0.23
2023-02-12T22:59:05.024Z,-0.21
2023-02-12T23:01:34.267Z,-0.22
2023-02-12T23:04:03.414Z,-0.21
2023-02-12T23:06:32.877Z,-0.28
2023-02-12T23:09:03.057Z,-0.10
2023-02-12T23:11:32.645Z,-0.17
2023-02-12T23:14:01.065Z,-0.14
2023-02-12T23:16:29.559Z,-0.16
2023-02-12T23:18:58.363Z,-0.17
2023-02-12T23:21:27.110Z,-0.12
2023-02-12T23:23:57.043Z,-0.37
2023-02-12T23:26:24.879Z,-0.16
2023-02-12T23:28:52.807Z,-0.26
2023-02-12T23:31:21.064Z,-0.26
2023-02-12T23:33:49.223Z,-0.39
2023-02-12T23:36:17.086Z,-0.15
2023-02-12T23:38:44.941Z,-0.10
2023-02-12T23:41:14.289Z,-0.15
2023-02-12T23:43:42.160Z,-0.18
2023-02-12T23:46:10.270Z,-0.25
2023-02-12T23:48:38.226Z,-0.24
2023-02-12T23:51:06.188Z,-0.23
2023-02-12T23:53:34.105Z,-0.21
2023-02-12T23:56:02.034Z,-0.16
2023-02-12T23:58:31.260Z,-0.19
